LTCV

Şırnak Şerafettin Elçi Airport

Airport
ICAO code
LTCV
IATA Code
NKT
Summary
ICAO Region
EUR
ICAO Territory
Location

Cizre,

Serving
Sirnak
Coordinates
37° 21' 50" N , 42° 3' 36" E
Metar
LTCV 201550Z 23007KT CAVOK 20/12 Q1010

Airport map

Aerial View

SKYbrary Partners:

Safety knowledge contributed by: